Time;durP1;ratioP1;P1;durP2;ratioP2;P2;SDS_P1;SDS_P2;PMS_P1;PMS_P2;Temp;Humidity;BMP_temperature;BMP_pressure;BME280_temperature;BME280_humidity;BME280_pressure;Samples;Min_cycle;Max_cycle;Signal;HPM_P1;HPM_P2
2021/11/04 00:00:19;;;;;;;41.72;29.77;;;;;;;7.21;98.74;100336.19;4994055;28;20058;-52
2021/11/04 00:02:47;;;;;;;44.05;29.55;;;;;;;7.27;98.34;100329.75;4994564;28;20046;-53
2021/11/04 00:05:15;;;;;;;41.25;29.45;;;;;;;7.29;98.72;100329.47;4993739;28;20093;-54
2021/11/04 00:07:47;;;;;;;42.72;30.00;;;;;;;7.31;98.91;100335.47;4994238;28;20089;-53
2021/11/04 00:10:16;;;;;;;39.58;29.00;;;;;;;7.32;98.11;100320.84;4993196;28;20116;-52
2021/11/04 00:12:44;;;;;;;39.42;29.15;;;;;;;7.37;98.38;100329.03;4994534;28;20050;-51
2021/11/04 00:15:13;;;;;;;45.30;31.65;;;;;;;7.41;97.92;100335.56;4993658;28;20065;-52
2021/11/04 00:17:41;;;;;;;44.97;31.85;;;;;;;7.44;98.59;100332.34;4993693;28;20038;-52
2021/11/04 00:20:12;;;;;;;43.78;30.90;;;;;;;7.50;98.69;100327.75;4989505;28;20070;-53
2021/11/04 00:22:40;;;;;;;43.58;31.20;;;;;;;7.51;97.66;100324.78;4980067;28;20038;-53
2021/11/04 00:25:09;;;;;;;46.05;32.88;;;;;;;7.52;97.15;100320.19;4993321;28;20408;-52
2021/11/04 00:27:38;;;;;;;45.20;32.92;;;;;;;7.48;96.76;100309.06;4994062;28;20046;-52
2021/11/04 00:30:08;;;;;;;40.25;30.83;;;;;;;7.46;96.90;100311.22;4993336;28;20105;-52
2021/11/04 00:32:37;;;;;;;42.45;29.80;;;;;;;7.44;96.94;100303.31;4993851;28;20109;-52
2021/11/04 00:35:06;;;;;;;41.33;30.33;;;;;;;7.42;96.71;100310.91;4993083;28;20054;-52
2021/11/04 00:37:34;;;;;;;42.95;29.92;;;;;;;7.41;96.73;100305.75;4993688;28;20042;-52
2021/11/04 00:40:03;;;;;;;44.60;32.03;;;;;;;7.39;96.69;100311.44;4992442;28;20042;-52
2021/11/04 00:42:31;;;;;;;40.20;28.92;;;;;;;7.38;97.14;100300.84;4993890;28;20042;-54
2021/11/04 00:45:00;;;;;;;40.10;29.02;;;;;;;7.36;96.80;100297.56;4993298;28;20055;-52
2021/11/04 00:47:28;;;;;;;39.22;28.55;;;;;;;7.34;97.35;100297.84;4993943;28;20088;-52
2021/11/04 00:49:57;;;;;;;38.97;30.20;;;;;;;7.32;97.08;100296.47;4992529;28;20061;-53
2021/11/04 00:52:25;;;;;;;41.53;30.90;;;;;;;7.31;97.14;100300.22;4993637;28;20047;-53
2021/11/04 00:54:53;;;;;;;42.58;31.40;;;;;;;7.29;97.10;100305.94;4992657;28;20449;-53
2021/11/04 00:57:23;;;;;;;46.67;32.63;;;;;;;7.27;97.13;100299.13;4993371;28;20045;-52
2021/11/04 00:59:51;;;;;;;40.78;30.58;;;;;;;7.24;97.83;100306.72;4992481;28;20097;-51
2021/11/04 01:02:19;;;;;;;44.80;31.85;;;;;;;7.21;97.43;100309.91;4993281;28;20038;-52
2021/11/04 01:04:47;;;;;;;43.55;30.60;;;;;;;7.20;97.61;100313.72;4993055;28;20405;-52
2021/11/04 01:07:16;;;;;;;42.17;29.95;;;;;;;7.25;98.47;100312.94;4992930;28;20042;-50
2021/11/04 01:09:44;;;;;;;44.92;30.25;;;;;;;7.28;98.01;100315.13;4991650;28;20050;-52
2021/11/04 01:12:12;;;;;;;40.88;29.75;;;;;;;7.25;97.82;100311.03;4992913;28;20053;-52
2021/11/04 01:14:41;;;;;;;37.53;27.80;;;;;;;7.25;98.66;100311.03;4992689;28;20541;-53
2021/11/04 01:17:09;;;;;;;40.35;28.95;;;;;;;7.25;98.19;100316.47;4993073;28;20043;-52
2021/11/04 01:19:37;;;;;;;38.85;27.88;;;;;;;7.23;98.17;100315.88;4992977;28;20050;-54
2021/11/04 01:22:06;;;;;;;36.30;28.17;;;;;;;7.20;98.03;100316.41;4992773;28;20069;-52
2021/11/04 01:24:34;;;;;;;36.90;27.92;;;;;;;7.16;98.20;100307.16;4992493;28;20042;-54
2021/11/04 01:27:02;;;;;;;36.25;26.67;;;;;;;7.17;99.24;100306.09;4993170;28;20043;-52
2021/11/04 01:29:31;;;;;;;36.17;26.10;;;;;;;7.19;98.92;100293.13;4992563;28;20460;-52
2021/11/04 01:31:59;;;;;;;34.78;25.90;;;;;;;7.22;99.09;100289.88;4992793;28;20050;-49
2021/11/04 01:34:27;;;;;;;34.45;25.35;;;;;;;7.25;98.58;100289.34;4992044;28;20564;-50
2021/11/04 01:36:55;;;;;;;36.00;26.15;;;;;;;7.28;98.48;100281.78;4992637;28;20528;-51
2021/11/04 01:39:23;;;;;;;34.78;25.60;;;;;;;7.28;99.31;100290.72;4992293;28;20050;-53
2021/11/04 01:41:53;;;;;;;33.13;25.55;;;;;;;7.27;99.08;100297.25;4992442;28;20107;-52
2021/11/04 01:44:21;;;;;;;31.23;24.33;;;;;;;7.21;98.60;100299.06;4992530;28;20501;-53
2021/11/04 01:46:50;;;;;;;31.38;22.98;;;;;;;7.13;99.23;100290.63;4992675;28;20532;-53
2021/11/04 01:49:18;;;;;;;31.75;24.52;;;;;;;7.09;99.56;100293.00;4992206;28;20061;-51
2021/11/04 01:51:46;;;;;;;31.27;23.88;;;;;;;7.09;99.53;100295.72;4992103;28;20048;-53
2021/11/04 01:54:14;;;;;;;32.38;23.60;;;;;;;7.06;99.38;100307.09;4986860;28;20062;-53
2021/11/04 01:56:43;;;;;;;29.35;23.52;;;;;;;7.05;99.84;100300.03;4996580;28;20053;-52
2021/11/04 01:59:11;;;;;;;30.20;22.73;;;;;;;7.00;99.59;100302.72;4996757;28;20048;-52
2021/11/04 02:01:40;;;;;;;25.42;20.70;;;;;;;6.97;99.56;100305.91;4996111;28;20074;-51
2021/11/04 02:04:16;;;;;;;27.98;21.65;;;;;;;6.98;99.64;100299.44;4994605;28;20042;-52
2021/11/04 02:07:09;;;;;;;24.88;20.23;;;;;;;6.97;100.00;100304.00;4993409;28;20159;-50
2021/11/04 02:09:44;;;;;;;28.92;21.05;;;;;;;7.00;100.00;100302.72;5011335;28;20046;-52
2021/11/04 02:12:33;;;;;;;26.85;20.73;;;;;;;7.01;100.00;100293.50;5011271;28;20089;-53
2021/11/04 02:15:02;;;;;;;28.23;21.00;;;;;;;7.04;99.95;100298.38;4994595;28;20121;-52
2021/11/04 02:17:31;;;;;;;29.05;21.27;;;;;;;7.04;100.00;100295.69;4996192;28;20066;-52
2021/11/04 02:20:01;;;;;;;26.40;20.65;;;;;;;7.02;99.72;100284.28;5011105;28;20046;-52
2021/11/04 02:22:29;;;;;;;27.42;21.15;;;;;;;7.04;100.00;100282.13;4995995;28;20047;-48
2021/11/04 02:25:12;;;;;;;24.90;20.67;;;;;;;7.03;100.00;100286.75;4994617;28;20409;-52
2021/11/04 02:27:52;;;;;;;25.48;19.20;;;;;;;7.00;99.32;100294.59;4995948;28;20054;-52
2021/11/04 02:30:22;;;;;;;23.05;19.10;;;;;;;6.99;99.81;100301.88;4985657;28;20125;-48
2021/11/04 02:32:52;;;;;;;22.27;16.50;;;;;;;7.01;99.76;100290.78;4995979;28;20042;-51
2021/11/04 02:35:21;;;;;;;22.23;17.77;;;;;;;7.07;100.00;100297.91;4994156;28;20046;-53
2021/11/04 02:37:51;;;;;;;21.90;17.58;;;;;;;7.09;99.81;100306.56;4995579;28;20117;-50
2021/11/04 02:40:21;;;;;;;22.17;17.73;;;;;;;7.12;99.75;100310.63;5010430;28;20059;-51
2021/11/04 02:42:53;;;;;;;21.40;17.20;;;;;;;7.12;98.90;100311.47;4995397;28;20121;-51
2021/11/04 02:45:24;;;;;;;21.98;17.40;;;;;;;7.11;99.27;100303.59;4982894;28;20038;-52
2021/11/04 02:47:53;;;;;;;19.48;16.33;;;;;;;7.08;98.86;100304.94;4995440;28;20129;-52
2021/11/04 02:50:22;;;;;;;20.55;16.50;;;;;;;7.12;99.00;100302.50;4995591;28;20043;-52
2021/11/04 02:52:50;;;;;;;21.58;16.05;;;;;;;7.15;98.97;100305.53;4995795;28;20118;-52
2021/11/04 02:55:19;;;;;;;19.35;15.65;;;;;;;7.19;99.10;100300.41;4994824;28;20137;-53
2021/11/04 02:57:49;;;;;;;20.02;16.38;;;;;;;7.23;98.56;100296.13;4997087;28;20051;-49
2021/11/04 03:00:18;;;;;;;18.60;15.18;;;;;;;7.23;98.48;100307.75;4995343;28;20046;-50
2021/11/04 03:02:46;;;;;;;19.73;15.63;;;;;;;7.23;97.84;100309.66;4995115;28;20101;-48
2021/11/04 03:05:15;;;;;;;19.45;15.43;;;;;;;7.19;97.50;100316.66;4995075;28;20101;-49
2021/11/04 03:07:44;;;;;;;20.00;15.85;;;;;;;7.18;97.63;100313.16;4994964;28;20064;-53
2021/11/04 03:10:12;;;;;;;20.30;16.38;;;;;;;7.18;97.59;100309.63;4995054;28;20043;-52
2021/11/04 03:12:40;;;;;;;19.48;16.15;;;;;;;7.16;97.59;100306.34;4995064;28;20137;-49
2021/11/04 03:15:12;;;;;;;19.88;16.48;;;;;;;7.17;98.52;100310.72;4995236;28;20050;-50
2021/11/04 03:17:40;;;;;;;21.65;17.20;;;;;;;7.17;98.36;100314.22;4994854;28;20045;-50
2021/11/04 03:20:10;;;;;;;21.27;16.88;;;;;;;7.17;97.88;100308.00;4993759;28;20134;-50
2021/11/04 03:22:39;;;;;;;19.85;16.08;;;;;;;7.15;97.46;100318.28;4994803;28;20049;-49
2021/11/04 03:25:07;;;;;;;20.05;15.85;;;;;;;7.16;97.91;100315.28;4994567;28;20105;-49
2021/11/04 03:27:39;;;;;;;20.10;16.17;;;;;;;7.17;98.05;100316.94;4994153;28;20130;-49
2021/11/04 03:30:09;;;;;;;21.30;17.05;;;;;;;7.17;97.64;100322.38;4994030;28;20046;-50
2021/11/04 03:32:41;;;;;;;21.08;16.40;;;;;;;7.18;97.52;100332.09;5009535;28;20130;-52
2021/11/04 03:35:13;;;;;;;20.73;16.95;;;;;;;7.19;97.71;100333.75;4994259;28;20046;-53
2021/11/04 03:38:09;;;;;;;19.95;16.25;;;;;;;7.22;97.25;100335.13;4994492;28;20125;-56
2021/11/04 03:40:38;;;;;;;20.58;16.13;;;;;;;7.21;96.64;100342.41;5010473;28;20042;-50
2021/11/04 03:43:07;;;;;;;19.73;15.82;;;;;;;7.20;96.54;100345.41;5009459;28;20041;-57
2021/11/04 03:45:37;;;;;;;19.70;15.73;;;;;;;7.20;96.26;100348.94;4992504;28;20077;-55
2021/11/04 03:48:07;;;;;;;21.63;17.05;;;;;;;7.20;97.33;100348.94;5007972;28;20124;-56
2021/11/04 03:50:37;;;;;;;22.83;17.80;;;;;;;7.24;97.72;100351.97;5009380;28;20046;-53
2021/11/04 03:53:06;;;;;;;23.38;17.90;;;;;;;7.23;96.67;100345.69;5009635;28;20050;-52
2021/11/04 03:55:35;;;;;;;23.73;19.30;;;;;;;7.21;97.33;100350.56;5009348;28;20030;-52
2021/11/04 03:58:04;;;;;;;24.00;17.85;;;;;;;7.20;97.12;100350.81;4992904;28;20396;-51
2021/11/04 04:00:32;;;;;;;23.80;19.17;;;;;;;7.18;97.14;100352.97;4993114;28;20049;-52
2021/11/04 04:03:01;;;;;;;21.90;17.38;;;;;;;7.17;97.13;100346.75;4993673;28;20441;-53
2021/11/04 04:05:32;;;;;;;20.92;17.42;;;;;;;7.20;98.00;100353.53;4993979;28;20057;-52
2021/11/04 04:08:01;;;;;;;23.77;18.23;;;;;;;7.22;98.33;100354.91;4993435;28;20053;-52
2021/11/04 04:10:32;;;;;;;23.25;17.60;;;;;;;7.26;97.76;100355.19;4994589;28;20038;-52
2021/11/04 04:13:01;;;;;;;20.25;16.00;;;;;;;7.26;97.57;100355.19;4993618;28;20065;-53
2021/11/04 04:15:29;;;;;;;19.73;16.05;;;;;;;7.25;96.70;100354.41;4993440;28;20038;-51
2021/11/04 04:17:58;;;;;;;20.60;16.33;;;;;;;7.23;96.92;100351.13;4994221;28;20058;-56
2021/11/04 04:20:27;;;;;;;20.35;17.30;;;;;;;7.23;96.80;100356.53;4994066;28;20042;-53
2021/11/04 04:22:55;;;;;;;22.23;17.80;;;;;;;7.23;97.05;100361.97;4994436;28;20428;-54
2021/11/04 04:25:25;;;;;;;23.02;17.00;;;;;;;7.24;97.30;100360.91;4993123;28;20153;-53
2021/11/04 04:27:54;;;;;;;22.83;18.33;;;;;;;7.25;96.92;100362.53;4986323;28;20454;-54
2021/11/04 04:30:22;;;;;;;25.67;18.42;;;;;;;7.26;96.75;100363.34;4993866;28;20454;-52
2021/11/04 04:32:51;;;;;;;25.35;19.65;;;;;;;7.25;96.68;100359.81;4993723;28;20102;-52
2021/11/04 04:35:22;;;;;;;26.00;19.23;;;;;;;7.24;96.50;100355.47;4993127;28;20066;-53
2021/11/04 04:37:51;;;;;;;25.75;20.55;;;;;;;7.21;97.39;100355.16;4992967;28;20050;-53
2021/11/04 04:40:19;;;;;;;26.02;20.67;;;;;;;7.20;96.85;100357.06;4993588;28;20054;-54
2021/11/04 04:42:47;;;;;;;27.27;20.85;;;;;;;7.18;97.75;100358.38;4993387;28;20038;-53
2021/11/04 04:45:19;;;;;;;30.02;20.80;;;;;;;7.17;97.41;100363.00;4991296;28;20456;-53
2021/11/04 04:47:47;;;;;;;26.45;21.10;;;;;;;7.18;97.91;100358.38;4993405;28;20041;-53
2021/11/04 04:50:16;;;;;;;28.95;20.63;;;;;;;7.19;98.54;100355.44;4993016;28;20068;-52
2021/11/04 04:52:47;;;;;;;28.73;21.27;;;;;;;7.20;98.60;100359.78;4993693;28;20483;-53
2021/11/04 04:55:16;;;;;;;29.30;22.42;;;;;;;7.20;97.77;100362.47;4993104;28;20070;-54
2021/11/04 04:57:45;;;;;;;26.42;21.00;;;;;;;7.18;98.75;100359.19;4992817;28;20038;-52
2021/11/04 05:00:14;;;;;;;28.63;20.98;;;;;;;7.17;98.47;100354.88;4985259;28;20050;-52
2021/11/04 05:02:44;;;;;;;27.70;20.77;;;;;;;7.18;98.91;100356.50;4992896;28;20034;-53
2021/11/04 05:05:13;;;;;;;28.17;20.73;;;;;;;7.18;98.75;100353.78;4993276;28;20437;-53
2021/11/04 05:07:42;;;;;;;27.80;20.02;;;;;;;7.18;99.04;100356.50;4993048;28;20386;-52
2021/11/04 05:10:10;;;;;;;25.25;19.13;;;;;;;7.20;98.49;100356.25;4993118;28;20053;-52
2021/11/04 05:12:39;;;;;;;24.17;18.75;;;;;;;7.20;98.26;100353.53;4992507;28;20524;-51
2021/11/04 05:15:07;;;;;;;22.63;16.52;;;;;;;7.18;98.32;100359.19;4993011;28;20045;-51
2021/11/04 05:17:38;;;;;;;20.45;16.10;;;;;;;7.20;98.19;100348.13;4992631;28;20505;-54
2021/11/04 05:20:08;;;;;;;19.08;14.82;;;;;;;7.21;98.10;100350.56;4993042;28;20053;-53
2021/11/04 05:22:39;;;;;;;19.27;15.32;;;;;;;7.21;98.24;100350.56;4992950;28;20437;-51
2021/11/04 05:25:07;;;;;;;17.42;14.82;;;;;;;7.23;98.12;100351.13;4992237;28;20038;-52
2021/11/04 05:27:36;;;;;;;18.35;15.40;;;;;;;7.21;97.59;100358.69;4992385;28;20039;-53
2021/11/04 05:30:06;;;;;;;18.63;14.65;;;;;;;7.19;97.31;100355.44;4992822;28;20141;-52
2021/11/04 05:32:34;;;;;;;18.90;14.32;;;;;;;7.16;97.18;100361.34;4993014;28;20053;-53
2021/11/04 05:35:03;;;;;;;19.00;15.25;;;;;;;7.17;97.42;100360.28;4992165;28;20516;-53
2021/11/04 05:37:31;;;;;;;19.50;15.55;;;;;;;7.18;98.03;100367.34;4992861;28;20500;-52
2021/11/04 05:40:00;;;;;;;18.33;14.73;;;;;;;7.18;97.58;100369.22;4992969;28;20053;-52
2021/11/04 05:42:28;;;;;;;18.55;14.35;;;;;;;7.19;97.96;100371.69;4992253;28;20046;-53
2021/11/04 05:44:56;;;;;;;17.40;14.02;;;;;;;7.19;97.19;100368.97;4990855;28;20505;-53
2021/11/04 05:47:25;;;;;;;18.17;14.93;;;;;;;7.19;97.19;100371.69;4992319;28;20477;-52
2021/11/04 05:49:53;;;;;;;19.15;14.82;;;;;;;7.17;97.11;100371.13;4992217;28;20506;-53
2021/11/04 05:52:22;;;;;;;20.83;15.55;;;;;;;7.14;97.53;100368.91;4992952;28;20556;-51
2021/11/04 05:54:55;;;;;;;20.50;15.60;;;;;;;7.11;97.34;100369.44;4992238;28;20046;-52
2021/11/04 05:57:24;;;;;;;18.63;14.95;;;;;;;7.12;97.52;100364.81;4991738;28;20505;-49
2021/11/04 05:59:54;;;;;;;19.50;15.55;;;;;;;7.12;97.69;100365.66;4992184;28;20517;-51
2021/11/04 06:02:22;;;;;;;18.17;14.88;;;;;;;7.11;97.18;100372.13;4992000;28;20584;-52
2021/11/04 06:04:51;;;;;;;19.65;15.90;;;;;;;7.13;98.00;100371.91;4992497;28;20560;-50
2021/11/04 06:07:19;;;;;;;21.15;16.45;;;;;;;7.15;97.99;100380.59;4992055;28;20043;-48
2021/11/04 06:09:47;;;;;;;21.83;18.08;;;;;;;7.13;97.33;100383.53;4992230;28;20045;-49
2021/11/04 06:12:16;;;;;;;21.50;17.25;;;;;;;7.11;97.46;100385.69;4991941;28;20497;-51
2021/11/04 06:14:44;;;;;;;21.95;17.25;;;;;;;7.12;97.02;100387.34;4990819;28;20069;-52
2021/11/04 06:17:13;;;;;;;22.50;18.17;;;;;;;7.12;96.76;100390.03;4992111;28;20038;-53
2021/11/04 06:19:41;;;;;;;22.45;18.48;;;;;;;7.09;97.22;100395.94;4992043;28;20058;-52
2021/11/04 06:22:09;;;;;;;23.13;17.70;;;;;;;7.09;97.13;100397.84;4992392;28;20073;-52
2021/11/04 06:24:38;;;;;;;23.42;18.20;;;;;;;7.10;96.84;100400.31;4991811;28;20054;-52
2021/11/04 06:27:06;;;;;;;22.05;16.83;;;;;;;7.10;96.61;100403.03;4991882;28;20133;-52
2021/11/04 06:29:34;;;;;;;26.88;20.40;;;;;;;7.09;97.66;100409.50;4991492;28;20853;-54
2021/11/04 06:32:03;;;;;;;22.50;18.38;;;;;;;7.06;97.12;100415.44;4992558;28;20034;-52
2021/11/04 06:34:35;;;;;;;26.38;19.00;;;;;;;7.03;97.82;100416.75;4992016;28;20046;-52
2021/11/04 06:37:06;;;;;;;23.33;18.65;;;;;;;7.01;97.11;100423.50;4992134;28;20106;-53
2021/11/04 06:39:35;;;;;;;23.20;19.25;;;;;;;6.95;97.34;100419.09;4995619;28;20054;-48
2021/11/04 06:42:03;;;;;;;22.42;17.27;;;;;;;6.92;98.06;100414.19;4993380;28;20450;-53
2021/11/04 06:44:32;;;;;;;21.35;17.83;;;;;;;6.92;97.50;100414.19;4994455;28;20054;-50
2021/11/04 06:47:02;;;;;;;23.52;18.25;;;;;;;6.92;98.30;100408.78;4994291;28;20081;-53
2021/11/04 06:49:33;;;;;;;20.98;17.08;;;;;;;6.93;98.31;100422.06;5001108;28;20065;-53
2021/11/04 06:52:02;;;;;;;22.00;17.48;;;;;;;6.94;98.30;100428.31;5010631;28;20126;-53
2021/11/04 06:54:31;;;;;;;23.75;17.15;;;;;;;7.00;98.24;100416.47;5009823;28;20504;-53
2021/11/04 06:57:02;;;;;;;22.65;15.48;;;;;;;7.06;97.64;100430.88;4994164;28;20519;-52
2021/11/04 06:59:35;;;;;;;18.00;15.00;;;;;;;7.07;97.29;100438.75;4994048;28;20051;-49
2021/11/04 07:02:04;;;;;;;17.23;12.73;;;;;;;7.06;97.90;100434.41;4995652;28;20061;-53
2021/11/04 07:04:35;;;;;;;17.67;12.82;;;;;;;7.04;97.42;100439.25;4995320;28;20047;-51
2021/11/04 07:09:37;;;;;;;15.77;12.52;;;;;;;7.04;96.97;100441.94;4995034;28;20149;-52
2021/11/04 07:12:08;;;;;;;16.50;12.80;;;;;;;7.02;96.50;100441.38;4989508;28;20050;-52
2021/11/04 07:14:41;;;;;;;14.25;10.90;;;;;;;7.00;96.44;100443.56;4991255;28;20042;-53
2021/11/04 07:17:13;;;;;;;18.33;13.20;;;;;;;6.98;96.78;100448.41;4994510;28;20057;-51
2021/11/04 07:19:42;;;;;;;16.50;12.85;;;;;;;6.97;96.93;100449.47;4994759;28;20038;-50
2021/11/04 07:22:48;;;;;;;18.17;13.00;;;;;;;6.99;96.59;100448.13;4994779;28;20070;-52
2021/11/04 07:25:18;;;;;;;17.25;12.32;;;;;;;7.02;96.53;100452.22;4985108;28;20489;-49
2021/11/04 07:28:08;;;;;;;17.15;12.93;;;;;;;7.03;97.23;100449.28;4994464;28;20038;-51
2021/11/04 07:30:36;;;;;;;18.10;13.45;;;;;;;7.08;97.27;100456.63;5009518;28;20133;-52
2021/11/04 07:33:05;;;;;;;17.27;12.13;;;;;;;7.09;96.68;100463.69;4994392;28;20130;-52
2021/11/04 07:35:39;;;;;;;14.80;10.95;;;;;;;7.10;96.29;100464.53;4994581;28;20449;-53
2021/11/04 07:38:14;;;;;;;14.45;10.18;;;;;;;7.07;95.61;100455.00;4992859;28;20045;-52
2021/11/04 07:40:42;;;;;;;14.45;10.68;;;;;;;7.05;95.76;100462.56;4992458;28;20165;-53
2021/11/04 07:43:11;;;;;;;13.20;10.30;;;;;;;7.02;96.02;100469.31;4989496;28;20046;-52
2021/11/04 07:45:39;;;;;;;13.93;10.32;;;;;;;7.00;95.55;100467.94;4994182;28;20503;-54
2021/11/04 07:48:07;;;;;;;14.52;10.02;;;;;;;7.00;95.54;100470.63;4994292;28;20042;-53
2021/11/04 07:50:35;;;;;;;13.73;11.00;;;;;;;6.95;95.98;100471.41;4992551;28;20069;-52
2021/11/04 07:53:03;;;;;;;12.43;8.70;;;;;;;6.92;95.73;100469.16;4993561;28;20034;-52
2021/11/04 07:55:32;;;;;;;13.25;10.05;;;;;;;6.90;95.12;100465.06;4989710;28;20134;-52
2021/11/04 07:57:59;;;;;;;13.05;10.20;;;;;;;6.92;95.60;100457.53;4991189;28;20057;-54
2021/11/04 08:00:29;;;;;;;13.00;9.82;;;;;;;6.91;95.30;100461.31;4994002;28;20571;-53
2021/11/04 08:02:58;;;;;;;13.95;10.00;;;;;;;6.88;95.34;100462.66;4993558;28;20050;-49
2021/11/04 08:05:26;;;;;;;15.32;8.95;;;;;;;6.88;95.27;100462.66;4991151;28;20061;-49
2021/11/04 08:07:54;;;;;;;13.65;10.07;;;;;;;6.83;95.36;100486.94;4993109;28;20124;-54
2021/11/04 08:10:25;;;;;;;13.18;9.88;;;;;;;6.78;95.54;100476.03;4984795;28;20050;-53
2021/11/04 08:12:53;;;;;;;16.90;12.52;;;;;;;6.75;96.00;100474.66;4992485;28;20047;-51
2021/11/04 08:15:21;;;;;;;18.33;11.13;;;;;;;6.79;96.24;100483.91;4993089;28;20043;-52
2021/11/04 08:17:50;;;;;;;14.02;10.60;;;;;;;6.81;95.96;100489.91;4993162;28;20050;-52
2021/11/04 08:20:18;;;;;;;14.05;10.32;;;;;;;6.87;96.47;100476.44;4992500;28;20046;-51
2021/11/04 08:22:46;;;;;;;17.15;11.02;;;;;;;6.90;96.49;100475.91;4993410;28;20050;-51
2021/11/04 08:25:14;;;;;;;13.50;11.15;;;;;;;6.93;96.84;100480.84;4993501;28;20096;-51
2021/11/04 08:27:42;;;;;;;16.20;11.63;;;;;;;6.95;96.57;100475.97;4993723;28;20105;-51
2021/11/04 08:30:15;;;;;;;15.70;11.02;;;;;;;6.97;96.55;100484.66;4993849;28;20081;-51
2021/11/04 08:32:44;;;;;;;18.63;11.30;;;;;;;6.96;96.43;100477.63;4993142;28;20039;-51
2021/11/04 08:35:12;;;;;;;18.20;11.93;;;;;;;6.93;95.85;100476.25;4993204;28;20046;-51
2021/11/04 08:37:40;;;;;;;19.67;12.90;;;;;;;6.95;96.75;100473.25;4993384;28;20057;-51
2021/11/04 08:40:09;;;;;;;17.98;12.27;;;;;;;6.96;96.08;100467.59;4992859;28;20038;-52
2021/11/04 08:42:37;;;;;;;17.63;12.48;;;;;;;7.01;97.04;100477.69;4993347;28;20062;-52
2021/11/04 08:45:06;;;;;;;17.90;12.30;;;;;;;7.02;96.07;100474.72;4993247;28;20035;-52
2021/11/04 08:47:35;;;;;;;20.52;12.05;;;;;;;7.02;95.94;100468.47;5008458;28;20058;-52
2021/11/04 08:50:05;;;;;;;14.80;10.55;;;;;;;7.04;96.16;100471.75;4992793;28;20054;-52
2021/11/04 08:52:33;;;;;;;16.23;11.05;;;;;;;7.07;96.14;100470.44;4993028;28;20049;-52
2021/11/04 08:55:04;;;;;;;17.08;11.50;;;;;;;7.08;95.75;100472.88;4993148;28;20125;-53
2021/11/04 08:57:32;;;;;;;16.30;11.32;;;;;;;7.11;96.25;100482.41;4993059;28;20572;-52
2021/11/04 09:00:01;;;;;;;16.77;10.82;;;;;;;7.12;95.41;100484.03;4992980;28;20070;-51
2021/11/04 09:02:30;;;;;;;17.73;11.27;;;;;;;7.12;95.40;100492.16;4992514;28;20097;-53
2021/11/04 09:05:01;;;;;;;15.60;11.35;;;;;;;7.11;95.93;100485.91;4993135;28;20085;-51
2021/11/04 09:07:29;;;;;;;15.27;10.40;;;;;;;7.15;95.76;100494.38;4992771;28;20100;-54
2021/11/04 09:09:57;;;;;;;14.15;9.63;;;;;;;7.14;95.56;100501.66;4992984;28;20034;-52
2021/11/04 09:12:25;;;;;;;15.80;9.43;;;;;;;7.23;96.69;100505.56;4992586;28;20039;-52
2021/11/04 09:14:53;;;;;;;14.50;10.40;;;;;;;7.29;96.40;100494.78;4993094;28;20054;-53
2021/11/04 09:17:22;;;;;;;12.32;9.15;;;;;;;7.27;95.88;100514.03;4992310;28;20058;-53
2021/11/04 09:19:51;;;;;;;12.82;9.52;;;;;;;7.27;95.77;100510.50;4992175;28;20567;-52
2021/11/04 09:22:20;;;;;;;15.13;9.45;;;;;;;7.25;95.70;100506.13;4989435;28;20043;-52
2021/11/04 09:24:49;;;;;;;17.60;10.18;;;;;;;7.27;95.53;100513.22;4991900;28;20043;-52
2021/11/04 09:27:17;;;;;;;15.18;10.18;;;;;;;7.23;95.15;100513.69;4992435;28;20386;-50
2021/11/04 09:29:46;;;;;;;13.32;9.57;;;;;;;7.21;95.33;100518.53;4992213;28;20042;-53
2021/11/04 09:32:14;;;;;;;12.88;9.15;;;;;;;7.21;95.48;100523.16;4989619;28;20056;-52
2021/11/04 09:34:58;;;;;;;17.13;8.18;;;;;;;7.30;95.79;100518.13;4992140;28;20125;-53
2021/11/04 09:37:26;;;;;;;13.35;9.60;;;;;;;7.32;95.68;100526.81;4992378;28;20050;-52
2021/11/04 09:39:54;;;;;;;14.20;10.43;;;;;;;7.32;95.01;100533.06;4992331;28;20034;-53
2021/11/04 09:42:23;;;;;;;13.82;9.82;;;;;;;7.31;95.10;100525.16;4992707;28;20058;-53
2021/11/04 09:44:53;;;;;;;15.60;10.38;;;;;;;7.30;95.23;100528.97;4991809;28;20038;-53
2021/11/04 09:47:26;;;;;;;12.32;9.65;;;;;;;7.27;94.70;100534.91;4996679;28;20050;-52
2021/11/04 09:49:55;;;;;;;13.88;10.27;;;;;;;7.25;94.99;100538.66;4996030;28;20054;-50
2021/11/04 09:52:28;;;;;;;14.13;10.70;;;;;;;7.27;95.17;100540.31;4997472;28;20050;-52
2021/11/04 09:55:09;;;;;;;13.38;10.85;;;;;;;7.32;95.20;100543.06;4993271;28;20039;-52
2021/11/04 09:57:40;;;;;;;13.25;10.30;;;;;;;7.36;95.40;100545.03;4992816;28;20038;-53
2021/11/04 10:00:10;;;;;;;15.00;9.73;;;;;;;7.39;95.82;100552.66;4993196;28;20046;-52
2021/11/04 10:02:41;;;;;;;11.88;8.07;;;;;;;7.40;95.42;100556.97;4991104;28;20062;-52
2021/11/04 10:05:11;;;;;;;12.80;8.18;;;;;;;7.43;95.35;100550.22;4990887;28;20046;-51
2021/11/04 10:07:49;;;;;;;14.55;8.65;;;;;;;7.45;95.44;100557.03;4992402;28;20042;-52
2021/11/04 10:10:19;;;;;;;11.90;7.95;;;;;;;7.49;95.43;100562.78;4992821;28;20049;-52
2021/11/04 10:13:00;;;;;;;12.77;7.60;;;;;;;7.55;95.92;100555.53;4993782;28;20057;-52
2021/11/04 10:15:30;;;;;;;15.32;7.40;;;;;;;7.57;95.97;100556.91;4996249;28;20050;-52
2021/11/04 10:18:20;;;;;;;11.70;8.30;;;;;;;7.61;95.32;100557.22;4996087;28;20043;-53
2021/11/04 10:21:03;;;;;;;15.57;8.82;;;;;;;7.61;95.83;100565.34;4996335;28;20074;-52
2021/11/04 10:23:43;;;;;;;11.30;7.30;;;;;;;7.63;95.38;100574.88;4996344;28;20046;-52
2021/11/04 10:26:17;;;;;;;10.25;7.72;;;;;;;7.67;95.61;100577.88;4996039;28;20061;-53
2021/11/04 10:28:47;;;;;;;10.85;8.30;;;;;;;7.68;96.42;100565.97;4996213;28;20045;-53
2021/11/04 10:31:18;;;;;;;14.40;8.50;;;;;;;7.70;96.43;100571.97;4995077;28;20042;-53
2021/11/04 10:33:47;;;;;;;11.93;8.77;;;;;;;7.69;96.08;100564.88;4995720;28;20516;-52
2021/11/04 10:36:24;;;;;;;12.02;8.70;;;;;;;7.67;96.15;100572.47;4995958;28;20076;-53
2021/11/04 10:39:00;;;;;;;12.05;8.95;;;;;;;7.67;96.98;100559.75;4983916;28;20046;-52
2021/11/04 10:41:34;;;;;;;13.93;8.75;;;;;;;7.67;96.88;100558.91;4995670;28;20042;-50
2021/11/04 10:44:08;;;;;;;15.05;9.40;;;;;;;7.66;96.91;100558.09;4995816;28;20057;-53
2021/11/04 10:46:43;;;;;;;13.57;10.02;;;;;;;7.67;97.42;100565.16;4995314;28;20049;-53
2021/11/04 10:49:11;;;;;;;11.95;9.25;;;;;;;7.68;97.69;100564.06;4983578;28;20050;-52
2021/11/04 10:51:39;;;;;;;12.73;9.25;;;;;;;7.71;98.11;100564.66;4995617;28;20038;-52
2021/11/04 10:54:13;;;;;;;12.80;9.00;;;;;;;7.73;97.88;100560.59;4995480;28;20050;-52
2021/11/04 10:56:42;;;;;;;12.68;9.57;;;;;;;7.80;98.03;100558.50;4995285;28;20073;-52
2021/11/04 10:59:16;;;;;;;15.85;9.95;;;;;;;7.86;98.35;100562.06;4995380;28;20049;-53
2021/11/04 11:01:48;;;;;;;12.75;9.80;;;;;;;7.94;97.13;100561.63;4995423;28;20054;-52
2021/11/04 11:04:24;;;;;;;13.07;9.68;;;;;;;7.95;97.09;100560.53;4994854;28;20046;-54
2021/11/04 11:06:53;;;;;;;14.05;10.30;;;;;;;7.94;97.40;100560.78;4995574;28;20148;-52
2021/11/04 11:09:27;;;;;;;13.48;9.85;;;;;;;7.94;97.16;100567.06;4995106;28;20042;-52
2021/11/04 11:11:58;;;;;;;12.73;10.35;;;;;;;7.95;97.55;100563.25;4995475;28;20055;-52
2021/11/04 11:14:26;;;;;;;16.30;9.88;;;;;;;7.94;96.78;100569.78;4995291;28;20057;-53
2021/11/04 11:16:56;;;;;;;14.40;10.35;;;;;;;7.94;97.32;100561.63;4995056;28;20042;-52
2021/11/04 11:19:30;;;;;;;12.90;9.40;;;;;;;7.96;97.63;100578.47;4994272;28;20101;-53
2021/11/04 11:22:01;;;;;;;11.57;8.88;;;;;;;7.98;97.17;100573.59;4994969;28;20493;-52
2021/11/04 11:24:36;;;;;;;12.10;9.75;;;;;;;8.00;97.78;100579.59;4994868;28;20045;-52
2021/11/04 11:27:09;;;;;;;13.13;9.73;;;;;;;8.02;97.47;100585.56;4995006;28;20030;-51
2021/11/04 11:29:49;;;;;;;13.75;9.43;;;;;;;7.99;97.59;100590.72;4994033;28;20133;-53
2021/11/04 11:32:21;;;;;;;12.00;9.63;;;;;;;7.97;98.09;100590.13;4994688;28;20497;-52
2021/11/04 11:34:50;;;;;;;14.88;10.15;;;;;;;7.98;98.53;100592.56;4994304;28;20101;-52